sensor_id;sensor_type;location;lat;lon;timestamp;temperature;humidity
66722;SHT31;53633;49.932;10.884;2022-07-23T00:01:29;21.73;61.25
66722;SHT31;53633;49.932;10.884;2022-07-23T00:03:56;21.73;61.19
66722;SHT31;53633;49.932;10.884;2022-07-23T00:06:24;21.64;61.35
66722;SHT31;53633;49.932;10.884;2022-07-23T00:08:51;21.56;61.34
66722;SHT31;53633;49.932;10.884;2022-07-23T00:11:18;21.67;61.97
66722;SHT31;53633;49.932;10.884;2022-07-23T00:13:45;21.64;61.43
66722;SHT31;53633;49.932;10.884;2022-07-23T00:16:12;21.74;61.76
66722;SHT31;53633;49.932;10.884;2022-07-23T00:18:38;21.76;61.47
66722;SHT31;53633;49.932;10.884;2022-07-23T00:21:05;21.53;61.70
66722;SHT31;53633;49.932;10.884;2022-07-23T00:23:34;21.35;62.32
66722;SHT31;53633;49.932;10.884;2022-07-23T00:26:01;21.22;62.54
66722;SHT31;53633;49.932;10.884;2022-07-23T00:28:27;21.05;63.27
66722;SHT31;53633;49.932;10.884;2022-07-23T00:30:54;21.19;63.11
66722;SHT31;53633;49.932;10.884;2022-07-23T00:33:21;21.05;64.10
66722;SHT31;53633;49.932;10.884;2022-07-23T00:35:47;21.02;64.57
66722;SHT31;53633;49.932;10.884;2022-07-23T00:38:14;20.78;65.40
66722;SHT31;53633;49.932;10.884;2022-07-23T00:40:42;20.94;65.15
66722;SHT31;53633;49.932;10.884;2022-07-23T00:43:08;21.14;64.44
66722;SHT31;53633;49.932;10.884;2022-07-23T00:45:35;20.76;65.51
66722;SHT31;53633;49.932;10.884;2022-07-23T00:48:02;20.66;65.90
66722;SHT31;53633;49.932;10.884;2022-07-23T00:50:29;20.60;65.99
66722;SHT31;53633;49.932;10.884;2022-07-23T00:52:56;20.71;65.53
66722;SHT31;53633;49.932;10.884;2022-07-23T00:55:23;20.64;65.39
66722;SHT31;53633;49.932;10.884;2022-07-23T00:57:52;20.56;65.53
66722;SHT31;53633;49.932;10.884;2022-07-23T01:00:19;20.47;65.77
66722;SHT31;53633;49.932;10.884;2022-07-23T01:02:46;20.53;65.20
66722;SHT31;53633;49.932;10.884;2022-07-23T01:05:14;20.44;65.41
66722;SHT31;53633;49.932;10.884;2022-07-23T01:07:42;20.60;65.76
66722;SHT31;53633;49.932;10.884;2022-07-23T01:10:09;20.69;65.56
66722;SHT31;53633;49.932;10.884;2022-07-23T01:12:38;20.46;65.56
66722;SHT31;53633;49.932;10.884;2022-07-23T01:15:07;20.43;66.14
66722;SHT31;53633;49.932;10.884;2022-07-23T01:17:34;20.60;65.46
66722;SHT31;53633;49.932;10.884;2022-07-23T01:20:00;20.54;65.72
66722;SHT31;53633;49.932;10.884;2022-07-23T01:22:28;20.46;65.23
66722;SHT31;53633;49.932;10.884;2022-07-23T01:24:56;20.59;65.57
66722;SHT31;53633;49.932;10.884;2022-07-23T01:27:22;20.50;65.40
66722;SHT31;53633;49.932;10.884;2022-07-23T01:29:49;20.53;65.28
66722;SHT31;53633;49.932;10.884;2022-07-23T01:32:16;20.63;65.48
66722;SHT31;53633;49.932;10.884;2022-07-23T01:34:42;20.53;65.59
66722;SHT31;53633;49.932;10.884;2022-07-23T01:37:09;20.43;65.81
66722;SHT31;53633;49.932;10.884;2022-07-23T01:39:37;20.23;66.66
66722;SHT31;53633;49.932;10.884;2022-07-23T01:42:04;20.19;67.30
66722;SHT31;53633;49.932;10.884;2022-07-23T01:44:31;20.29;67.07
66722;SHT31;53633;49.932;10.884;2022-07-23T01:46:57;20.43;66.72
66722;SHT31;53633;49.932;10.884;2022-07-23T01:49:24;20.37;66.78
66722;SHT31;53633;49.932;10.884;2022-07-23T01:51:51;20.29;66.76
66722;SHT31;53633;49.932;10.884;2022-07-23T01:54:17;20.52;66.60
66722;SHT31;53633;49.932;10.884;2022-07-23T01:56:45;20.63;66.43
66722;SHT31;53633;49.932;10.884;2022-07-23T01:59:12;20.54;66.22
66722;SHT31;53633;49.932;10.884;2022-07-23T02:01:38;20.42;66.57
66722;SHT31;53633;49.932;10.884;2022-07-23T02:04:05;20.44;66.84
66722;SHT31;53633;49.932;10.884;2022-07-23T02:06:32;20.28;67.73
66722;SHT31;53633;49.932;10.884;2022-07-23T02:08:58;20.19;68.00
66722;SHT31;53633;49.932;10.884;2022-07-23T02:11:26;20.11;68.28
66722;SHT31;53633;49.932;10.884;2022-07-23T02:13:54;20.05;68.50
66722;SHT31;53633;49.932;10.884;2022-07-23T02:16:20;20.16;68.67
66722;SHT31;53633;49.932;10.884;2022-07-23T02:18:47;20.13;68.50
66722;SHT31;53633;49.932;10.884;2022-07-23T02:21:14;20.13;68.30
66722;SHT31;53633;49.932;10.884;2022-07-23T02:23:40;20.06;68.64
66722;SHT31;53633;49.932;10.884;2022-07-23T02:26:07;20.01;68.80
66722;SHT31;53633;49.932;10.884;2022-07-23T02:28:34;19.95;69.03
66722;SHT31;53633;49.932;10.884;2022-07-23T02:31:02;20.25;68.70
66722;SHT31;53633;49.932;10.884;2022-07-23T02:33:29;20.11;68.87
66722;SHT31;53633;49.932;10.884;2022-07-23T02:35:55;19.98;69.01
66722;SHT31;53633;49.932;10.884;2022-07-23T02:38:22;19.85;69.44
66722;SHT31;53633;49.932;10.884;2022-07-23T02:40:48;19.63;70.18
66722;SHT31;53633;49.932;10.884;2022-07-23T02:43:15;19.49;70.90
66722;SHT31;53633;49.932;10.884;2022-07-23T02:45:42;19.43;70.87
66722;SHT31;53633;49.932;10.884;2022-07-23T02:48:10;19.34;70.80
66722;SHT31;53633;49.932;10.884;2022-07-23T02:50:36;19.24;71.17
66722;SHT31;53633;49.932;10.884;2022-07-23T02:53:03;19.29;70.95
66722;SHT31;53633;49.932;10.884;2022-07-23T02:55:29;19.27;71.14
66722;SHT31;53633;49.932;10.884;2022-07-23T02:57:56;19.30;70.87
66722;SHT31;53633;49.932;10.884;2022-07-23T03:00:23;19.43;70.74
66722;SHT31;53633;49.932;10.884;2022-07-23T03:02:50;19.37;70.70
66722;SHT31;53633;49.932;10.884;2022-07-23T03:05:18;19.61;70.21
66722;SHT31;53633;49.932;10.884;2022-07-23T03:07:44;19.58;70.35
66722;SHT31;53633;49.932;10.884;2022-07-23T03:10:11;19.67;70.46
66722;SHT31;53633;49.932;10.884;2022-07-23T03:12:38;19.74;70.18
66722;SHT31;53633;49.932;10.884;2022-07-23T03:15:05;19.77;69.97
66722;SHT31;53633;49.932;10.884;2022-07-23T03:17:32;19.66;70.48
66722;SHT31;53633;49.932;10.884;2022-07-23T03:19:59;19.60;71.06
66722;SHT31;53633;49.932;10.884;2022-07-23T03:22:27;19.84;70.12
66722;SHT31;53633;49.932;10.884;2022-07-23T03:24:53;19.91;69.83
66722;SHT31;53633;49.932;10.884;2022-07-23T03:27:20;19.79;70.55
66722;SHT31;53633;49.932;10.884;2022-07-23T03:29:48;19.71;71.03
66722;SHT31;53633;49.932;10.884;2022-07-23T03:32:15;19.39;71.93
66722;SHT31;53633;49.932;10.884;2022-07-23T03:34:41;19.20;72.26
66722;SHT31;53633;49.932;10.884;2022-07-23T03:37:08;19.06;72.44
66722;SHT31;53633;49.932;10.884;2022-07-23T03:39:36;18.99;72.85
66722;SHT31;53633;49.932;10.884;2022-07-23T03:42:03;18.85;73.12
66722;SHT31;53633;49.932;10.884;2022-07-23T03:44:30;18.76;73.51
66722;SHT31;53633;49.932;10.884;2022-07-23T03:46:58;18.81;73.94
66722;SHT31;53633;49.932;10.884;2022-07-23T03:49:24;18.68;74.21
66722;SHT31;53633;49.932;10.884;2022-07-23T03:51:51;18.64;74.45
66722;SHT31;53633;49.932;10.884;2022-07-23T03:54:18;18.57;74.59
66722;SHT31;53633;49.932;10.884;2022-07-23T03:56:46;18.71;74.80
66722;SHT31;53633;49.932;10.884;2022-07-23T03:59:13;18.60;74.78
66722;SHT31;53633;49.932;10.884;2022-07-23T04:01:39;18.64;74.89
66722;SHT31;53633;49.932;10.884;2022-07-23T04:04:06;18.58;74.94
66722;SHT31;53633;49.932;10.884;2022-07-23T04:06:33;18.57;75.06
66722;SHT31;53633;49.932;10.884;2022-07-23T04:09:00;18.71;75.03
66722;SHT31;53633;49.932;10.884;2022-07-23T04:11:27;18.96;74.13
66722;SHT31;53633;49.932;10.884;2022-07-23T04:13:55;18.87;74.33
66722;SHT31;53633;49.932;10.884;2022-07-23T04:16:21;18.71;74.44
66722;SHT31;53633;49.932;10.884;2022-07-23T04:18:48;18.65;75.00
66722;SHT31;53633;49.932;10.884;2022-07-23T04:21:15;18.47;75.61
66722;SHT31;53633;49.932;10.884;2022-07-23T04:23:41;18.50;75.55
66722;SHT31;53633;49.932;10.884;2022-07-23T04:26:09;18.50;75.31
66722;SHT31;53633;49.932;10.884;2022-07-23T04:28:43;18.74;74.74
66722;SHT31;53633;49.932;10.884;2022-07-23T04:31:11;19.16;73.53
66722;SHT31;53633;49.932;10.884;2022-07-23T04:33:37;19.73;71.47
66722;SHT31;53633;49.932;10.884;2022-07-23T04:36:04;20.49;69.00
66722;SHT31;53633;49.932;10.884;2022-07-23T04:38:31;21.04;67.48
66722;SHT31;53633;49.932;10.884;2022-07-23T04:40:58;21.26;67.07
66722;SHT31;53633;49.932;10.884;2022-07-23T04:43:24;21.41;66.56
66722;SHT31;53633;49.932;10.884;2022-07-23T04:45:51;21.25;66.49
66722;SHT31;53633;49.932;10.884;2022-07-23T04:48:20;20.98;67.85
66722;SHT31;53633;49.932;10.884;2022-07-23T04:50:47;20.85;68.16
66722;SHT31;53633;49.932;10.884;2022-07-23T04:53:13;20.91;67.94
66722;SHT31;53633;49.932;10.884;2022-07-23T04:55:40;20.87;68.07
66722;SHT31;53633;49.932;10.884;2022-07-23T04:58:06;20.88;68.08
66722;SHT31;53633;49.932;10.884;2022-07-23T05:00:33;21.42;66.73
66722;SHT31;53633;49.932;10.884;2022-07-23T05:03:00;21.87;64.96
66722;SHT31;53633;49.932;10.884;2022-07-23T05:05:29;22.02;64.40
66722;SHT31;53633;49.932;10.884;2022-07-23T05:07:55;22.08;64.03
66722;SHT31;53633;49.932;10.884;2022-07-23T05:10:22;22.49;62.89
66722;SHT31;53633;49.932;10.884;2022-07-23T05:12:52;23.49;60.15
66722;SHT31;53633;49.932;10.884;2022-07-23T05:15:19;24.23;58.13
66722;SHT31;53633;49.932;10.884;2022-07-23T05:17:45;24.34;58.02
66722;SHT31;53633;49.932;10.884;2022-07-23T05:20:12;25.33;55.56
66722;SHT31;53633;49.932;10.884;2022-07-23T05:22:41;25.91;53.65
66722;SHT31;53633;49.932;10.884;2022-07-23T05:25:08;26.70;52.06
66722;SHT31;53633;49.932;10.884;2022-07-23T05:27:35;27.05;51.22
66722;SHT31;53633;49.932;10.884;2022-07-23T05:30:02;27.50;50.54
66722;SHT31;53633;49.932;10.884;2022-07-23T05:32:31;27.38;50.17
66722;SHT31;53633;49.932;10.884;2022-07-23T05:34:57;27.33;49.91
66722;SHT31;53633;49.932;10.884;2022-07-23T05:37:24;26.80;50.89
66722;SHT31;53633;49.932;10.884;2022-07-23T05:39:52;25.86;53.39
66722;SHT31;53633;49.932;10.884;2022-07-23T05:42:19;25.12;55.06
66722;SHT31;53633;49.932;10.884;2022-07-23T05:44:45;25.16;54.71
66722;SHT31;53633;49.932;10.884;2022-07-23T05:47:12;24.99;54.70
66722;SHT31;53633;49.932;10.884;2022-07-23T05:49:39;24.68;55.85
66722;SHT31;53633;49.932;10.884;2022-07-23T05:52:06;24.48;56.70
66722;SHT31;53633;49.932;10.884;2022-07-23T05:54:34;24.30;57.38
66722;SHT31;53633;49.932;10.884;2022-07-23T05:57:02;24.24;57.26
66722;SHT31;53633;49.932;10.884;2022-07-23T05:59:29;24.34;57.58
66722;SHT31;53633;49.932;10.884;2022-07-23T06:01:55;24.54;57.33
66722;SHT31;53633;49.932;10.884;2022-07-23T06:04:22;25.99;53.43
66722;SHT31;53633;49.932;10.884;2022-07-23T06:06:48;27.25;50.01
66722;SHT31;53633;49.932;10.884;2022-07-23T06:09:15;27.71;48.75
66722;SHT31;53633;49.932;10.884;2022-07-23T06:11:42;28.69;46.66
66722;SHT31;53633;49.932;10.884;2022-07-23T06:14:10;30.13;43.50
66722;SHT31;53633;49.932;10.884;2022-07-23T06:16:36;30.41;42.65
66722;SHT31;53633;49.932;10.884;2022-07-23T06:19:03;30.28;43.37
66722;SHT31;53633;49.932;10.884;2022-07-23T06:21:30;29.63;43.69
66722;SHT31;53633;49.932;10.884;2022-07-23T06:24:13;28.41;46.80
66722;SHT31;53633;49.932;10.884;2022-07-23T06:26:40;28.29;47.24
66722;SHT31;53633;49.932;10.884;2022-07-23T06:29:07;27.69;48.51
66722;SHT31;53633;49.932;10.884;2022-07-23T06:31:35;27.06;49.70
66722;SHT31;53633;49.932;10.884;2022-07-23T06:34:01;26.94;50.21
66722;SHT31;53633;49.932;10.884;2022-07-23T06:36:28;27.15;50.07
66722;SHT31;53633;49.932;10.884;2022-07-23T06:39:09;27.42;48.98
66722;SHT31;53633;49.932;10.884;2022-07-23T06:41:36;27.26;49.43
66722;SHT31;53633;49.932;10.884;2022-07-23T06:44:03;27.52;48.49
66722;SHT31;53633;49.932;10.884;2022-07-23T06:46:29;27.70;47.93
66722;SHT31;53633;49.932;10.884;2022-07-23T06:48:57;29.14;44.65
66722;SHT31;53633;49.932;10.884;2022-07-23T06:51:25;30.67;41.24
66722;SHT31;53633;49.932;10.884;2022-07-23T06:53:51;31.16;39.46
66722;SHT31;53633;49.932;10.884;2022-07-23T06:56:18;30.80;41.63
66722;SHT31;53633;49.932;10.884;2022-07-23T06:58:45;31.19;40.37
66722;SHT31;53633;49.932;10.884;2022-07-23T07:01:11;29.85;42.34
66722;SHT31;53633;49.932;10.884;2022-07-23T07:03:38;29.27;44.43
66722;SHT31;53633;49.932;10.884;2022-07-23T07:06:06;29.03;44.53
66722;SHT31;53633;49.932;10.884;2022-07-23T07:08:33;28.32;46.30
66722;SHT31;53633;49.932;10.884;2022-07-23T07:10:59;28.17;46.71
66722;SHT31;53633;49.932;10.884;2022-07-23T07:13:26;28.12;46.83
66722;SHT31;53633;49.932;10.884;2022-07-23T07:15:52;27.88;47.18
66722;SHT31;53633;49.932;10.884;2022-07-23T07:18:19;27.29;48.67
66722;SHT31;53633;49.932;10.884;2022-07-23T07:20:46;27.19;48.92
66722;SHT31;53633;49.932;10.884;2022-07-23T07:23:14;26.81;50.04
66722;SHT31;53633;49.932;10.884;2022-07-23T07:25:42;26.70;50.66
66722;SHT31;53633;49.932;10.884;2022-07-23T07:28:08;26.46;52.33
66722;SHT31;53633;49.932;10.884;2022-07-23T07:30:35;26.22;52.90
66722;SHT31;53633;49.932;10.884;2022-07-23T07:33:02;26.06;57.88
66722;SHT31;53633;49.932;10.884;2022-07-23T07:35:28;25.91;55.82
66722;SHT31;53633;49.932;10.884;2022-07-23T07:37:55;25.55;57.90
66722;SHT31;53633;49.932;10.884;2022-07-23T07:40:23;25.27;57.05
66722;SHT31;53633;49.932;10.884;2022-07-23T07:42:51;25.15;57.29
66722;SHT31;53633;49.932;10.884;2022-07-23T07:45:20;24.92;57.52
66722;SHT31;53633;49.932;10.884;2022-07-23T07:47:47;24.88;57.40
66722;SHT31;53633;49.932;10.884;2022-07-23T07:50:13;25.06;57.91
66722;SHT31;53633;49.932;10.884;2022-07-23T07:52:40;25.23;56.69
66722;SHT31;53633;49.932;10.884;2022-07-23T07:55:08;25.47;56.09
66722;SHT31;53633;49.932;10.884;2022-07-23T07:57:36;25.80;55.14
66722;SHT31;53633;49.932;10.884;2022-07-23T08:00:04;26.01;54.25
66722;SHT31;53633;49.932;10.884;2022-07-23T08:02:40;26.13;54.28
66722;SHT31;53633;49.932;10.884;2022-07-23T08:05:07;26.41;53.51
66722;SHT31;53633;49.932;10.884;2022-07-23T08:07:34;26.50;53.17
66722;SHT31;53633;49.932;10.884;2022-07-23T08:10:01;26.40;53.24
66722;SHT31;53633;49.932;10.884;2022-07-23T08:12:39;26.30;53.04
66722;SHT31;53633;49.932;10.884;2022-07-23T08:15:06;26.16;53.60
66722;SHT31;53633;49.932;10.884;2022-07-23T08:17:39;25.91;54.94
66722;SHT31;53633;49.932;10.884;2022-07-23T08:20:07;25.78;54.89
66722;SHT31;53633;49.932;10.884;2022-07-23T08:22:47;25.60;54.96
66722;SHT31;53633;49.932;10.884;2022-07-23T08:25:15;25.48;56.21
66722;SHT31;53633;49.932;10.884;2022-07-23T08:27:43;25.34;55.46
66722;SHT31;53633;49.932;10.884;2022-07-23T08:30:10;25.30;55.11
66722;SHT31;53633;49.932;10.884;2022-07-23T08:32:51;25.47;56.09
66722;SHT31;53633;49.932;10.884;2022-07-23T08:35:21;25.48;55.88
66722;SHT31;53633;49.932;10.884;2022-07-23T08:37:48;25.70;55.29
66722;SHT31;53633;49.932;10.884;2022-07-23T08:40:15;25.96;54.30
66722;SHT31;53633;49.932;10.884;2022-07-23T08:42:44;26.18;53.28
66722;SHT31;53633;49.932;10.884;2022-07-23T08:45:12;27.01;51.51
66722;SHT31;53633;49.932;10.884;2022-07-23T08:47:39;28.21;50.08
66722;SHT31;53633;49.932;10.884;2022-07-23T08:50:07;29.44;46.64
66722;SHT31;53633;49.932;10.884;2022-07-23T08:52:34;30.00;44.84
66722;SHT31;53633;49.932;10.884;2022-07-23T08:55:02;30.32;44.19
66722;SHT31;53633;49.932;10.884;2022-07-23T08:57:29;30.74;42.29
66722;SHT31;53633;49.932;10.884;2022-07-23T08:59:57;31.07;41.77
66722;SHT31;53633;49.932;10.884;2022-07-23T09:02:24;31.22;41.48
66722;SHT31;53633;49.932;10.884;2022-07-23T09:04:51;31.43;41.85
66722;SHT31;53633;49.932;10.884;2022-07-23T09:07:18;31.55;41.53
66722;SHT31;53633;49.932;10.884;2022-07-23T09:09:44;31.84;40.65
66722;SHT31;53633;49.932;10.884;2022-07-23T09:12:11;32.50;39.55
66722;SHT31;53633;49.932;10.884;2022-07-23T09:14:39;32.92;39.48
66722;SHT31;53633;49.932;10.884;2022-07-23T09:17:15;33.35;38.86
66722;SHT31;53633;49.932;10.884;2022-07-23T09:19:43;33.33;39.20
66722;SHT31;53633;49.932;10.884;2022-07-23T09:22:17;33.17;38.77
66722;SHT31;53633;49.932;10.884;2022-07-23T09:25:08;33.18;38.59
66722;SHT31;53633;49.932;10.884;2022-07-23T09:27:46;32.98;38.11
66722;SHT31;53633;49.932;10.884;2022-07-23T09:30:20;32.84;38.38
66722;SHT31;53633;49.932;10.884;2022-07-23T09:33:08;33.00;38.39
66722;SHT31;53633;49.932;10.884;2022-07-23T09:35:45;33.00;38.74
66722;SHT31;53633;49.932;10.884;2022-07-23T09:38:12;32.16;39.91
66722;SHT31;53633;49.932;10.884;2022-07-23T09:40:39;32.06;40.85
66722;SHT31;53633;49.932;10.884;2022-07-23T09:43:06;31.85;40.96
66722;SHT31;53633;49.932;10.884;2022-07-23T09:45:33;31.61;41.53
66722;SHT31;53633;49.932;10.884;2022-07-23T09:48:11;31.85;41.54
66722;SHT31;53633;49.932;10.884;2022-07-23T09:50:39;32.04;40.17
66722;SHT31;53633;49.932;10.884;2022-07-23T09:53:06;32.20;40.81
66722;SHT31;53633;49.932;10.884;2022-07-23T09:55:34;32.01;41.54
66722;SHT31;53633;49.932;10.884;2022-07-23T09:58:01;32.02;40.89
66722;SHT31;53633;49.932;10.884;2022-07-23T10:00:29;32.44;40.53
66722;SHT31;53633;49.932;10.884;2022-07-23T10:02:57;33.09;39.21
66722;SHT31;53633;49.932;10.884;2022-07-23T10:05:26;33.09;39.99
66722;SHT31;53633;49.932;10.884;2022-07-23T10:07:52;33.41;38.21
66722;SHT31;53633;49.932;10.884;2022-07-23T10:10:21;33.38;39.80
66722;SHT31;53633;49.932;10.884;2022-07-23T10:12:48;33.22;39.04
66722;SHT31;53633;49.932;10.884;2022-07-23T10:15:16;33.55;38.40
66722;SHT31;53633;49.932;10.884;2022-07-23T10:17:43;33.78;38.88
66722;SHT31;53633;49.932;10.884;2022-07-23T10:20:09;34.18;37.24
66722;SHT31;53633;49.932;10.884;2022-07-23T10:22:41;34.41;37.12
66722;SHT31;53633;49.932;10.884;2022-07-23T10:25:14;34.08;37.57
66722;SHT31;53633;49.932;10.884;2022-07-23T10:28:06;33.56;37.85
66722;SHT31;53633;49.932;10.884;2022-07-23T10:30:39;33.09;38.53
66722;SHT31;53633;49.932;10.884;2022-07-23T10:33:17;32.71;38.88
66722;SHT31;53633;49.932;10.884;2022-07-23T10:35:53;32.81;38.83
66722;SHT31;53633;49.932;10.884;2022-07-23T10:38:24;32.13;40.91
66722;SHT31;53633;49.932;10.884;2022-07-23T10:40:56;31.45;42.09
66722;SHT31;53633;49.932;10.884;2022-07-23T10:43:22;31.48;41.98
66722;SHT31;53633;49.932;10.884;2022-07-23T10:45:49;31.82;41.21
66722;SHT31;53633;49.932;10.884;2022-07-23T10:48:19;31.88;41.15
66722;SHT31;53633;49.932;10.884;2022-07-23T10:51:07;31.84;42.41
66722;SHT31;53633;49.932;10.884;2022-07-23T10:53:55;31.95;41.42
66722;SHT31;53633;49.932;10.884;2022-07-23T10:59:22;32.22;40.66
66722;SHT31;53633;49.932;10.884;2022-07-23T11:01:49;32.17;41.01
66722;SHT31;53633;49.932;10.884;2022-07-23T11:04:17;32.29;40.87
66722;SHT31;53633;49.932;10.884;2022-07-23T11:07:06;31.88;41.48
66722;SHT31;53633;49.932;10.884;2022-07-23T11:09:40;31.98;40.70
66722;SHT31;53633;49.932;10.884;2022-07-23T11:12:32;31.43;41.84
66722;SHT31;53633;49.932;10.884;2022-07-23T11:15:00;31.41;42.20
66722;SHT31;53633;49.932;10.884;2022-07-23T11:17:29;31.34;42.02
66722;SHT31;53633;49.932;10.884;2022-07-23T11:20:15;31.68;40.43
66722;SHT31;53633;49.932;10.884;2022-07-23T11:22:48;31.75;39.99
66722;SHT31;53633;49.932;10.884;2022-07-23T11:25:30;31.50;41.63
66722;SHT31;53633;49.932;10.884;2022-07-23T11:28:08;31.26;41.32
66722;SHT31;53633;49.932;10.884;2022-07-23T11:30:41;30.80;43.28
66722;SHT31;53633;49.932;10.884;2022-07-23T11:33:19;30.62;45.13
66722;SHT31;53633;49.932;10.884;2022-07-23T11:35:47;30.61;43.76
66722;SHT31;53633;49.932;10.884;2022-07-23T11:38:15;30.96;43.22
66722;SHT31;53633;49.932;10.884;2022-07-23T11:40:47;30.68;43.22
66722;SHT31;53633;49.932;10.884;2022-07-23T11:43:14;30.80;43.06
66722;SHT31;53633;49.932;10.884;2022-07-23T11:45:41;31.00;43.28
66722;SHT31;53633;49.932;10.884;2022-07-23T11:48:14;31.10;42.61
66722;SHT31;53633;49.932;10.884;2022-07-23T11:50:41;31.20;42.07
66722;SHT31;53633;49.932;10.884;2022-07-23T11:53:08;31.27;41.73
66722;SHT31;53633;49.932;10.884;2022-07-23T11:55:35;31.07;41.99
66722;SHT31;53633;49.932;10.884;2022-07-23T11:58:03;30.99;42.19
66722;SHT31;53633;49.932;10.884;2022-07-23T12:00:31;30.48;43.40
66722;SHT31;53633;49.932;10.884;2022-07-23T12:03:05;30.09;43.80
66722;SHT31;53633;49.932;10.884;2022-07-23T12:05:34;30.28;43.41
66722;SHT31;53633;49.932;10.884;2022-07-23T12:08:06;30.34;42.84
66722;SHT31;53633;49.932;10.884;2022-07-23T12:10:35;30.47;42.52
66722;SHT31;53633;49.932;10.884;2022-07-23T12:13:04;30.55;41.56
66722;SHT31;53633;49.932;10.884;2022-07-23T12:15:34;30.62;40.24
66722;SHT31;53633;49.932;10.884;2022-07-23T12:18:01;30.80;40.86
66722;SHT31;53633;49.932;10.884;2022-07-23T12:20:30;31.03;40.59
66722;SHT31;53633;49.932;10.884;2022-07-23T12:23:00;31.16;40.08
66722;SHT31;53633;49.932;10.884;2022-07-23T12:25:28;31.27;39.52
66722;SHT31;53633;49.932;10.884;2022-07-23T12:28:00;30.90;41.08
66722;SHT31;53633;49.932;10.884;2022-07-23T12:30:31;30.90;40.93
66722;SHT31;53633;49.932;10.884;2022-07-23T12:33:01;30.61;41.30
66722;SHT31;53633;49.932;10.884;2022-07-23T12:35:34;30.35;40.92
66722;SHT31;53633;49.932;10.884;2022-07-23T12:38:03;30.20;41.34
66722;SHT31;53633;49.932;10.884;2022-07-23T12:40:32;30.51;40.89
66722;SHT31;53633;49.932;10.884;2022-07-23T12:43:01;30.68;41.77
66722;SHT31;53633;49.932;10.884;2022-07-23T12:45:43;30.79;40.69
66722;SHT31;53633;49.932;10.884;2022-07-23T12:48:17;30.76;42.62
66722;SHT31;53633;49.932;10.884;2022-07-23T12:50:52;31.07;40.35
66722;SHT31;53633;49.932;10.884;2022-07-23T12:53:21;31.12;39.75
66722;SHT31;53633;49.932;10.884;2022-07-23T12:55:56;30.96;39.25
66722;SHT31;53633;49.932;10.884;2022-07-23T12:58:44;31.06;38.07
66722;SHT31;53633;49.932;10.884;2022-07-23T13:01:25;30.74;40.24
66722;SHT31;53633;49.932;10.884;2022-07-23T13:03:59;30.67;39.51
66722;SHT31;53633;49.932;10.884;2022-07-23T13:06:26;30.55;38.77
66722;SHT31;53633;49.932;10.884;2022-07-23T13:08:55;30.49;39.59
66722;SHT31;53633;49.932;10.884;2022-07-23T13:11:22;30.42;39.61
66722;SHT31;53633;49.932;10.884;2022-07-23T13:13:49;30.52;40.48
66722;SHT31;53633;49.932;10.884;2022-07-23T13:16:16;30.16;40.78
66722;SHT31;53633;49.932;10.884;2022-07-23T13:18:44;30.38;40.78
66722;SHT31;53633;49.932;10.884;2022-07-23T13:21:11;30.32;40.75
66722;SHT31;53633;49.932;10.884;2022-07-23T13:23:38;30.28;40.34
66722;SHT31;53633;49.932;10.884;2022-07-23T13:26:05;30.14;40.36
66722;SHT31;53633;49.932;10.884;2022-07-23T13:28:32;30.07;41.47
66722;SHT31;53633;49.932;10.884;2022-07-23T13:30:59;30.25;40.53
66722;SHT31;53633;49.932;10.884;2022-07-23T13:33:26;30.38;40.38
66722;SHT31;53633;49.932;10.884;2022-07-23T13:35:54;30.47;41.04
66722;SHT31;53633;49.932;10.884;2022-07-23T13:38:21;30.28;41.24
66722;SHT31;53633;49.932;10.884;2022-07-23T13:40:51;30.62;39.83
66722;SHT31;53633;49.932;10.884;2022-07-23T13:43:22;30.42;40.87
66722;SHT31;53633;49.932;10.884;2022-07-23T13:45:50;30.65;40.02
66722;SHT31;53633;49.932;10.884;2022-07-23T13:48:19;30.62;39.84
66722;SHT31;53633;49.932;10.884;2022-07-23T13:50:47;30.75;38.53
66722;SHT31;53633;49.932;10.884;2022-07-23T13:53:23;30.68;38.74
66722;SHT31;53633;49.932;10.884;2022-07-23T13:55:52;30.57;38.42
66722;SHT31;53633;49.932;10.884;2022-07-23T13:58:20;30.72;38.62
66722;SHT31;53633;49.932;10.884;2022-07-23T14:00:51;30.96;38.16
66722;SHT31;53633;49.932;10.884;2022-07-23T14:03:20;30.51;38.24
66722;SHT31;53633;49.932;10.884;2022-07-23T14:05:47;30.35;38.99
66722;SHT31;53633;49.932;10.884;2022-07-23T14:08:16;30.34;41.17
66722;SHT31;53633;49.932;10.884;2022-07-23T14:10:42;30.23;41.96
66722;SHT31;53633;49.932;10.884;2022-07-23T14:13:09;30.51;41.78
66722;SHT31;53633;49.932;10.884;2022-07-23T14:15:36;30.48;40.82
66722;SHT31;53633;49.932;10.884;2022-07-23T14:18:03;30.47;40.89
66722;SHT31;53633;49.932;10.884;2022-07-23T14:20:29;30.35;41.86
66722;SHT31;53633;49.932;10.884;2022-07-23T14:22:56;30.49;41.17
66722;SHT31;53633;49.932;10.884;2022-07-23T14:25:26;30.40;41.01
66722;SHT31;53633;49.932;10.884;2022-07-23T14:27:54;30.21;40.49
66722;SHT31;53633;49.932;10.884;2022-07-23T14:30:21;30.17;41.10
66722;SHT31;53633;49.932;10.884;2022-07-23T14:32:49;30.00;41.53
66722;SHT31;53633;49.932;10.884;2022-07-23T14:35:15;29.93;40.82
66722;SHT31;53633;49.932;10.884;2022-07-23T14:37:45;29.90;41.95
66722;SHT31;53633;49.932;10.884;2022-07-23T14:40:12;29.94;41.85
66722;SHT31;53633;49.932;10.884;2022-07-23T14:42:40;29.99;41.02
66722;SHT31;53633;49.932;10.884;2022-07-23T14:45:09;30.07;41.28
66722;SHT31;53633;49.932;10.884;2022-07-23T14:47:36;30.04;41.25
66722;SHT31;53633;49.932;10.884;2022-07-23T14:50:06;30.13;40.32
66722;SHT31;53633;49.932;10.884;2022-07-23T14:52:33;30.11;41.22
66722;SHT31;53633;49.932;10.884;2022-07-23T14:54:59;30.16;40.17
66722;SHT31;53633;49.932;10.884;2022-07-23T14:57:26;30.04;39.20
66722;SHT31;53633;49.932;10.884;2022-07-23T14:59:54;30.02;39.95
66722;SHT31;53633;49.932;10.884;2022-07-23T15:02:21;29.89;40.58
66722;SHT31;53633;49.932;10.884;2022-07-23T15:04:48;29.62;41.53
66722;SHT31;53633;49.932;10.884;2022-07-23T15:07:15;29.65;42.14
66722;SHT31;53633;49.932;10.884;2022-07-23T15:09:41;29.70;41.30
66722;SHT31;53633;49.932;10.884;2022-07-23T15:12:08;29.83;39.82
66722;SHT31;53633;49.932;10.884;2022-07-23T15:14:38;29.85;39.95
66722;SHT31;53633;49.932;10.884;2022-07-23T15:17:06;29.66;39.79
66722;SHT31;53633;49.932;10.884;2022-07-23T15:19:33;29.35;40.48
66722;SHT31;53633;49.932;10.884;2022-07-23T15:22:00;29.42;40.25
66722;SHT31;53633;49.932;10.884;2022-07-23T15:24:28;29.34;40.60
66722;SHT31;53633;49.932;10.884;2022-07-23T15:26:54;29.38;40.69